Time;durP1;ratioP1;P1;durP2;ratioP2;P2;SDS_P1;SDS_P2;PMS_P1;PMS_P2;Temp;Humidity;BMP_temperature;BMP_pressure;BME280_temperature;BME280_humidity;BME280_pressure;Samples;Min_cycle;Max_cycle;Signal;HPM_P1;HPM_P2
2021/09/12 00:03:43;;;;;;;5.63;3.90;;;;;;;21.66;62.22;98145.00;8388203;28;20209;-61
2021/09/12 00:07:46;;;;;;;4.30;3.80;;;;;;;21.72;62.19;98143.63;8385549;28;20243;-61
2021/09/12 00:11:50;;;;;;;4.67;3.90;;;;;;;21.76;61.85;98144.19;8385800;28;20206;-61
2021/09/12 00:15:53;;;;;;;5.53;4.20;;;;;;;21.67;62.13;98136.13;8385721;28;20203;-60
2021/09/12 00:19:56;;;;;;;5.47;3.60;;;;;;;21.69;62.07;98132.56;8385499;28;20518;-61
2021/09/12 00:23:59;;;;;;;4.60;3.90;;;;;;;21.73;62.22;98134.78;8385194;28;20202;-60
2021/09/12 00:28:03;;;;;;;5.17;3.80;;;;;;;21.73;62.24;98140.03;8384846;28;20238;-60
2021/09/12 00:32:06;;;;;;;5.67;4.20;;;;;;;21.69;61.99;98132.56;8385131;28;20222;-60
2021/09/12 00:36:09;;;;;;;6.20;4.33;;;;;;;21.69;62.32;98122.84;8384985;28;20227;-60
2021/09/12 00:40:12;;;;;;;4.83;4.30;;;;;;;21.67;61.96;98127.41;8384212;28;20381;-60
2021/09/12 00:44:17;;;;;;;4.90;4.07;;;;;;;21.61;62.51;98128.78;8384336;28;20498;-61
2021/09/12 00:48:19;;;;;;;8.80;3.97;;;;;;;21.65;62.25;98130.16;8384606;28;20214;-61
2021/09/12 00:52:23;;;;;;;5.10;4.60;;;;;;;21.60;62.43;98127.09;8410268;28;20214;-61
2021/09/12 00:56:27;;;;;;;5.07;4.27;;;;;;;21.65;62.14;98127.53;8417528;28;20210;-61
2021/09/12 01:00:31;;;;;;;6.33;4.13;;;;;;;21.71;62.11;98126.16;8416967;28;20524;-61
2021/09/12 01:04:35;;;;;;;5.83;4.70;;;;;;;21.67;62.24;98125.59;8416674;28;20274;-61
2021/09/12 01:08:40;;;;;;;5.87;4.83;;;;;;;21.61;62.37;98126.13;8417464;28;20199;-60
2021/09/12 01:12:42;;;;;;;6.67;4.80;;;;;;;21.61;62.37;98122.66;8417033;28;20216;-60
2021/09/12 01:16:47;;;;;;;7.77;4.63;;;;;;;21.60;62.52;98123.63;8416698;28;20203;-60
2021/09/12 01:20:49;;;;;;;6.93;4.87;;;;;;;21.51;62.77;98119.97;8416623;28;20218;-61
2021/09/12 01:24:54;;;;;;;8.30;4.80;;;;;;;21.55;62.48;98121.41;8416407;28;20233;-61
2021/09/12 01:28:57;;;;;;;6.63;4.60;;;;;;;21.48;62.77;98121.09;8416520;28;20482;-60
2021/09/12 01:33:00;;;;;;;6.53;4.70;;;;;;;21.50;62.39;98120.97;8416306;28;20221;-61
2021/09/12 01:37:05;;;;;;;7.83;5.13;;;;;;;21.48;62.59;98110.56;8416287;28;20207;-61
2021/09/12 01:41:09;;;;;;;7.23;5.27;;;;;;;21.48;62.39;98115.81;8416227;28;20202;-60
2021/09/12 01:45:12;;;;;;;5.90;4.80;;;;;;;21.48;62.15;98107.91;8416285;28;20222;-61
2021/09/12 01:49:15;;;;;;;6.20;5.10;;;;;;;21.45;62.40;98107.34;8415999;28;20213;-61
2021/09/12 01:53:18;;;;;;;6.03;5.43;;;;;;;21.46;62.64;98103.75;8415876;28;20199;-60
2021/09/12 01:57:22;;;;;;;6.10;5.50;;;;;;;21.42;62.42;98104.97;8415870;28;20199;-61
2021/09/12 02:01:25;;;;;;;6.43;5.83;;;;;;;21.42;62.67;98107.59;8415794;28;20488;-61
2021/09/12 02:05:28;;;;;;;7.83;6.23;;;;;;;21.39;62.61;98107.84;8415879;28;20243;-61
2021/09/12 02:09:31;;;;;;;6.40;5.80;;;;;;;21.39;62.67;98113.94;8415721;28;20385;-61
2021/09/12 02:13:35;;;;;;;10.60;6.53;;;;;;;21.33;63.02;98113.66;8415818;28;20362;-60
2021/09/12 02:17:38;;;;;;;7.57;6.30;;;;;;;21.42;63.01;98111.06;8415638;28;20203;-60
2021/09/12 02:21:41;;;;;;;9.03;7.40;;;;;;;21.31;63.03;98110.34;8415589;28;20209;-60
2021/09/12 02:25:43;;;;;;;9.60;7.50;;;;;;;21.35;62.90;98106.47;8415445;28;20234;-61
2021/09/12 02:29:48;;;;;;;10.40;7.30;;;;;;;21.31;63.32;98105.06;8415586;28;20401;-60
2021/09/12 02:33:50;;;;;;;8.60;7.70;;;;;;;21.28;63.23;98107.00;8415244;28;20227;-61
2021/09/12 02:37:53;;;;;;;10.10;8.03;;;;;;;21.30;63.57;98101.56;8415321;28;20261;-61
2021/09/12 02:41:56;;;;;;;9.30;7.43;;;;;;;21.26;63.63;98103.63;8415145;28;20198;-60
2021/09/12 02:46:00;;;;;;;12.93;7.60;;;;;;;21.23;63.37;98103.09;8415188;28;20226;-60
2021/09/12 02:50:04;;;;;;;11.47;8.40;;;;;;;21.20;63.62;98103.34;8414986;28;20238;-61
2021/09/12 02:54:07;;;;;;;10.43;7.60;;;;;;;21.25;63.82;98098.53;8415126;28;20199;-61
2021/09/12 02:58:09;;;;;;;9.77;8.03;;;;;;;21.24;63.29;98108.19;8414966;28;20529;-61
2021/09/12 03:02:13;;;;;;;9.07;8.17;;;;;;;21.24;63.44;98100.31;8414942;28;20517;-61
2021/09/12 03:06:17;;;;;;;11.03;8.43;;;;;;;21.20;63.28;98098.91;8418632;28;20239;-61
2021/09/12 03:10:19;;;;;;;11.17;7.90;;;;;;;21.20;63.41;98100.72;8420733;28;20203;-61
2021/09/12 03:14:25;;;;;;;9.53;8.67;;;;;;;21.24;63.40;98107.38;8420768;28;20447;-61
2021/09/12 03:18:30;;;;;;;12.53;8.10;;;;;;;21.23;63.31;98103.09;8420554;28;20357;-61
2021/09/12 03:22:32;;;;;;;9.77;8.17;;;;;;;21.20;63.39;98098.06;8420388;28;20201;-61
2021/09/12 03:26:35;;;;;;;10.40;8.73;;;;;;;21.22;63.45;98098.78;8420282;28;20230;-61
2021/09/12 03:30:38;;;;;;;11.23;8.57;;;;;;;21.20;63.59;98091.00;8420271;28;20203;-61
2021/09/12 03:34:43;;;;;;;10.37;9.27;;;;;;;21.21;63.24;98091.81;8420015;28;20556;-60
2021/09/12 03:38:45;;;;;;;10.07;8.97;;;;;;;21.15;63.26;98087.94;8419923;28;20486;-60
2021/09/12 03:42:48;;;;;;;9.93;8.93;;;;;;;21.13;63.67;98094.28;8419796;28;20199;-61
2021/09/12 03:46:52;;;;;;;10.70;9.20;;;;;;;21.11;63.41;98090.97;8419620;28;20246;-61
2021/09/12 03:50:56;;;;;;;12.43;9.63;;;;;;;21.04;63.33;98088.84;8419390;28;20222;-61
2021/09/12 03:54:59;;;;;;;10.70;9.40;;;;;;;20.99;63.41;98083.16;8419654;28;20201;-61
2021/09/12 03:59:01;;;;;;;10.83;9.63;;;;;;;20.98;63.69;98086.75;8419387;28;20432;-60
2021/09/12 04:03:07;;;;;;;11.57;9.80;;;;;;;20.97;63.53;98089.50;8419111;28;20362;-61
2021/09/12 04:07:12;;;;;;;11.97;10.03;;;;;;;20.86;63.72;98096.50;8419032;28;20235;-61
2021/09/12 04:11:20;;;;;;;12.00;10.37;;;;;;;20.91;63.40;98097.94;8418954;28;20199;-61
2021/09/12 04:15:23;;;;;;;12.70;11.13;;;;;;;20.80;63.75;98091.75;8418539;28;20199;-61
2021/09/12 04:19:26;;;;;;;13.33;11.67;;;;;;;20.78;63.65;98085.81;8418809;28;20204;-61
2021/09/12 04:23:30;;;;;;;12.73;11.07;;;;;;;20.77;63.58;98088.56;8418424;28;20209;-61
2021/09/12 04:27:35;;;;;;;14.33;11.63;;;;;;;20.70;63.58;98090.88;8418195;28;20238;-60
2021/09/12 04:31:38;;;;;;;13.20;11.77;;;;;;;20.68;63.57;98100.72;8418401;28;20199;-60
2021/09/12 04:35:41;;;;;;;13.67;11.73;;;;;;;20.69;63.58;98094.47;8417931;28;20258;-61
2021/09/12 04:39:45;;;;;;;14.13;12.60;;;;;;;20.64;63.70;98101.94;8417836;28;20199;-61
2021/09/12 04:43:48;;;;;;;13.00;11.70;;;;;;;20.61;63.06;98103.00;8417972;28;20199;-61
2021/09/12 04:47:51;;;;;;;13.07;11.80;;;;;;;20.56;63.42;98104.31;8417581;28;20249;-61
2021/09/12 04:51:54;;;;;;;15.33;12.93;;;;;;;20.50;63.39;98098.63;8417525;28;20413;-60
2021/09/12 04:55:58;;;;;;;15.10;12.07;;;;;;;20.51;62.91;98113.44;8417618;28;20200;-61
2021/09/12 05:00:01;;;;;;;14.13;12.47;;;;;;;20.45;63.21;98119.19;8417313;28;20206;-60
2021/09/12 05:04:04;;;;;;;18.77;12.63;;;;;;;20.47;63.11;98124.34;8417039;28;20209;-61
2021/09/12 05:08:07;;;;;;;16.60;14.03;;;;;;;20.47;63.53;98122.53;8416889;28;20238;-61
2021/09/12 05:12:11;;;;;;;17.73;14.83;;;;;;;20.42;64.15;98127.34;8416955;28;20211;-60
2021/09/12 05:16:14;;;;;;;17.80;15.90;;;;;;;20.47;64.22;98129.59;8416847;28;20511;-61
2021/09/12 05:20:17;;;;;;;18.83;16.87;;;;;;;20.54;63.75;98133.38;8416636;28;20269;-61
2021/09/12 05:24:20;;;;;;;19.50;17.47;;;;;;;20.56;63.96;98131.47;8416712;28;20206;-61
2021/09/12 05:28:24;;;;;;;20.37;17.97;;;;;;;20.33;65.01;98129.88;8416132;28;20533;-60
2021/09/12 05:32:27;;;;;;;20.03;17.93;;;;;;;20.45;64.59;98129.72;8408830;28;20197;-60
2021/09/12 05:36:30;;;;;;;20.50;18.40;;;;;;;20.41;64.54;98132.72;8394272;28;20201;-61
2021/09/12 05:40:33;;;;;;;23.47;19.00;;;;;;;20.46;64.78;98139.25;8398880;28;20516;-60
2021/09/12 05:44:37;;;;;;;19.57;17.57;;;;;;;20.55;64.43;98139.50;8400625;28;20192;-61
2021/09/12 05:48:40;;;;;;;19.40;17.40;;;;;;;20.49;64.89;98144.28;8398389;28;20225;-61
2021/09/12 05:52:43;;;;;;;22.27;18.70;;;;;;;20.52;64.54;98148.44;8402687;28;20200;-60
2021/09/12 05:56:48;;;;;;;19.60;16.90;;;;;;;20.53;64.80;98152.75;8399057;28;20198;-61
2021/09/12 06:00:52;;;;;;;17.70;15.90;;;;;;;20.62;64.40;98152.03;8398527;28;20266;-61
2021/09/12 06:04:55;;;;;;;15.97;14.47;;;;;;;20.57;63.98;98155.97;8398197;28;20198;-61
2021/09/12 06:08:58;;;;;;;16.17;14.57;;;;;;;20.60;64.19;98148.69;8399001;28;20509;-60
2021/09/12 06:13:01;;;;;;;16.07;14.47;;;;;;;20.61;63.89;98154.78;8403173;28;20215;-61
2021/09/12 06:17:05;;;;;;;15.53;14.03;;;;;;;20.62;63.54;98153.81;8398197;28;20211;-61
2021/09/12 06:21:09;;;;;;;15.73;14.23;;;;;;;20.68;62.88;98154.16;8397059;28;20193;-61
2021/09/12 06:25:12;;;;;;;16.50;14.80;;;;;;;20.61;62.92;98141.63;8398179;28;20192;-60
2021/09/12 06:29:15;;;;;;;16.70;14.97;;;;;;;20.55;63.45;98150.84;8402416;28;20254;-61
2021/09/12 06:33:20;;;;;;;16.10;14.23;;;;;;;20.66;62.84;98152.63;8404521;28;20219;-60
2021/09/12 06:37:22;;;;;;;14.60;13.10;;;;;;;20.62;63.01;98159.94;8406495;28;20623;-60
2021/09/12 06:41:25;;;;;;;14.77;13.27;;;;;;;20.63;62.97;98160.75;8418922;28;20198;-60
2021/09/12 06:45:28;;;;;;;14.33;12.93;;;;;;;20.71;62.63;98163.59;8406475;28;20199;-61
2021/09/12 06:49:32;;;;;;;13.70;12.40;;;;;;;20.66;62.80;98163.16;8400963;28;20233;-62
2021/09/12 06:53:37;;;;;;;13.27;11.97;;;;;;;20.69;62.32;98166.38;8398847;28;20200;-61
2021/09/12 06:57:40;;;;;;;12.30;11.10;;;;;;;20.59;62.40;98165.41;8403423;28;20491;-60
2021/09/12 07:01:43;;;;;;;12.93;11.57;;;;;;;20.75;62.00;98169.44;8403502;28;20232;-61
2021/09/12 07:05:47;;;;;;;11.90;10.70;;;;;;;20.72;61.94;98167.91;8403087;28;20227;-61
2021/09/12 07:09:50;;;;;;;12.30;11.10;;;;;;;20.75;61.82;98169.44;8403184;28;20219;-61
2021/09/12 07:13:53;;;;;;;11.93;10.83;;;;;;;20.86;61.58;98166.75;8403312;28;20193;-60
2021/09/12 07:17:56;;;;;;;12.13;10.73;;;;;;;20.95;61.30;98165.16;8403886;28;20201;-60
2021/09/12 07:22:00;;;;;;;6.83;4.60;;;;;;;21.49;65.35;98179.88;8395760;28;20202;-59
2021/09/12 07:26:04;;;;;;;14.70;5.60;;;;;;;21.74;64.31;98183.03;8387249;28;20381;-59
2021/09/12 07:30:10;;;;;;;9.40;7.37;;;;;;;21.83;62.01;98184.88;8387104;28;20550;-59
2021/09/12 07:34:13;;;;;;;10.27;8.57;;;;;;;21.78;60.41;98185.28;8386793;28;20223;-59
2021/09/12 07:38:17;;;;;;;11.47;8.03;;;;;;;21.92;60.50;98188.53;8386674;28;20207;-59
2021/09/12 07:42:20;;;;;;;12.53;6.87;;;;;;;21.90;61.42;98191.28;8395087;28;20197;-59
2021/09/12 07:46:22;;;;;;;8.67;7.87;;;;;;;21.92;59.97;98188.53;8419674;28;20207;-59
2021/09/12 07:50:25;;;;;;;13.03;6.47;;;;;;;21.98;61.07;98196.72;8418888;28;20226;-59
2021/09/12 07:54:31;;;;;;;12.73;6.67;;;;;;;22.05;59.67;98197.84;8419460;28;20199;-59
2021/09/12 07:58:34;;;;;;;11.47;7.23;;;;;;;22.14;59.36;98200.63;8419155;28;20230;-59
2021/09/12 08:02:37;;;;;;;11.87;6.53;;;;;;;22.21;59.75;98202.59;8419089;28;20202;-59
2021/09/12 08:06:40;;;;;;;8.00;7.20;;;;;;;22.24;59.00;98212.88;8418803;28;20295;-59
2021/09/12 08:10:45;;;;;;;7.77;6.57;;;;;;;22.27;59.17;98205.69;8418889;28;20227;-59
2021/09/12 08:14:47;;;;;;;10.03;6.70;;;;;;;22.24;58.96;98214.69;8418986;28;20362;-59
2021/09/12 08:18:54;;;;;;;9.87;6.30;;;;;;;22.34;58.79;98228.75;8386502;28;20206;-58
2021/09/12 08:22:57;;;;;;;11.47;6.10;;;;;;;22.45;58.68;98231.28;8419276;28;20195;-58
2021/09/12 08:27:01;;;;;;;10.50;6.30;;;;;;;22.55;57.85;98236.56;8438615;28;20224;-59
2021/09/12 08:31:04;;;;;;;8.33;6.40;;;;;;;22.62;58.29;98236.88;8432777;28;20225;-59
2021/09/12 08:35:10;;;;;;;10.77;7.70;;;;;;;22.64;56.84;98238.38;8418390;28;20222;-58
2021/09/12 08:39:13;;;;;;;8.07;6.10;;;;;;;23.11;56.00;98235.06;8433735;28;20491;-58
2021/09/12 08:43:18;;;;;;;8.87;6.00;;;;;;;23.16;56.49;98245.22;8451499;28;20366;-58
2021/09/12 08:47:26;;;;;;;7.07;6.43;;;;;;;23.74;53.56;98233.66;8451312;28;20269;-58
2021/09/12 08:51:29;;;;;;;7.43;6.70;;;;;;;23.56;54.34;98231.78;8448621;28;20199;-58
2021/09/12 08:55:32;;;;;;;6.27;5.57;;;;;;;23.30;54.81;98238.66;8442608;28;20203;-59
2021/09/12 08:59:37;;;;;;;13.10;6.93;;;;;;;23.18;55.01;98241.44;8396582;28;20196;-58
2021/09/12 09:03:41;;;;;;;7.13;6.40;;;;;;;23.49;52.74;98229.84;8397282;28;20205;-59
2021/09/12 09:07:44;;;;;;;9.67;5.50;;;;;;;23.88;52.64;98237.69;8409934;28;20241;-58
2021/09/12 09:11:47;;;;;;;8.00;5.87;;;;;;;24.53;48.77;98225.22;8407065;28;20200;-59
2021/09/12 09:15:51;;;;;;;6.40;5.73;;;;;;;24.68;47.27;98222.88;8403510;28;20195;-58
2021/09/12 09:19:55;;;;;;;6.00;5.40;;;;;;;24.97;47.18;98216.50;8400672;28;20223;-58
2021/09/12 09:24:10;;;;;;;6.97;5.50;;;;;;;25.77;45.25;98208.44;8411439;28;20316;-61
2021/09/12 09:28:13;;;;;;;6.10;5.47;;;;;;;24.46;48.98;98207.41;8407954;28;20220;-58
2021/09/12 09:32:17;;;;;;;5.30;4.80;;;;;;;25.85;46.11;98213.75;8408701;28;20202;-58
2021/09/12 09:36:20;;;;;;;6.60;5.17;;;;;;;26.28;43.50;98198.69;8409524;28;20202;-58
2021/09/12 09:40:25;;;;;;;6.60;5.90;;;;;;;25.88;44.36;98200.19;8410919;28;20206;-62
2021/09/12 09:44:28;;;;;;;7.40;5.97;;;;;;;25.34;45.56;98202.22;8412684;28;20487;-59
2021/09/12 09:48:34;;;;;;;14.33;5.37;;;;;;;26.04;44.54;98201.28;8405488;28;20223;-58
2021/09/12 09:52:38;;;;;;;6.10;5.50;;;;;;;24.62;46.79;98209.41;8439380;28;20195;-58
2021/09/12 09:56:41;;;;;;;4.90;4.40;;;;;;;24.69;47.72;98205.19;8449445;28;20213;-59
2021/09/12 10:00:44;;;;;;;5.73;5.10;;;;;;;24.94;46.64;98198.25;8449336;28;20204;-58
2021/09/12 10:04:49;;;;;;;6.10;4.87;;;;;;;25.12;46.46;98182.34;8401098;28;20427;-58
2021/09/12 10:08:52;;;;;;;4.50;4.10;;;;;;;24.98;47.33;98186.41;8398528;28;20256;-58
2021/09/12 10:12:57;;;;;;;5.43;4.60;;;;;;;24.55;46.71;98191.50;8403309;28;20212;-58
2021/09/12 10:17:00;;;;;;;17.47;8.47;;;;;;;24.94;46.43;98182.38;8404892;28;20193;-59
2021/09/12 10:21:28;;;;;;;13.10;8.13;;;;;;;25.75;44.71;98162.69;8405155;28;20483;-59
2021/09/12 10:25:32;;;;;;;7.70;6.73;;;;;;;25.01;46.52;98177.31;8404680;28;20221;-59
2021/09/12 10:29:45;;;;;;;14.50;10.83;;;;;;;24.61;47.49;98183.94;8404555;28;20501;-59
2021/09/12 10:34:03;;;;;;;13.83;8.40;;;;;;;24.67;47.10;98178.03;8391193;28;20316;-58
2021/09/12 10:38:11;;;;;;;228.67;161.50;;;;;;;24.96;46.75;98178.59;8388762;28;20209;-59
2021/09/12 10:42:21;;;;;;;43.87;29.60;;;;;;;25.63;45.01;98163.97;8388612;28;20211;-59
2021/09/12 10:46:33;;;;;;;657.97;457.77;;;;;;;26.39;44.32;98163.06;8388401;28;20214;-58
2021/09/12 10:50:45;;;;;;;124.60;83.90;;;;;;;26.31;43.32;98168.31;8388171;28;20264;-59
2021/09/12 10:55:09;;;;;;;324.97;228.17;;;;;;;27.37;47.88;98170.19;8387999;28;20206;-59
2021/09/12 10:59:14;;;;;;;335.10;233.70;;;;;;;27.07;43.30;98161.94;8404608;28;20199;-59
2021/09/12 11:03:17;;;;;;;41.60;30.60;;;;;;;25.81;44.34;98164.69;8403314;28;20193;-59
2021/09/12 11:07:21;;;;;;;492.57;379.80;;;;;;;26.60;44.12;98162.59;8387639;28;20571;-60
2021/09/12 11:11:27;;;;;;;132.93;91.70;;;;;;;25.47;43.69;98164.69;8387544;28;20227;-59
2021/09/12 11:15:30;;;;;;;82.13;58.67;;;;;;;25.31;44.05;98152.19;8399958;28;20194;-59
2021/09/12 11:19:32;;;;;;;88.23;63.90;;;;;;;24.86;45.69;98155.84;8390068;28;20261;-59
2021/09/12 11:23:37;;;;;;;181.47;127.40;;;;;;;24.82;47.93;98157.13;8416012;28;20202;-59
2021/09/12 11:27:41;;;;;;;47.77;35.53;;;;;;;24.85;44.24;98143.59;8419590;28;20211;-59
2021/09/12 11:31:49;;;;;;;27.83;20.40;;;;;;;24.62;44.59;98137.94;8420170;28;20226;-59
2021/09/12 11:35:59;;;;;;;26.77;17.67;;;;;;;25.46;44.00;98131.22;8420015;28;20225;-59
2021/09/12 11:40:07;;;;;;;34.37;26.57;;;;;;;26.29;41.69;98131.34;8420234;28;20472;-59
2021/09/12 11:44:12;;;;;;;37.27;27.40;;;;;;;26.71;40.70;98132.22;8419793;28;20212;-59
2021/09/12 11:48:16;;;;;;;19.07;15.20;;;;;;;27.17;40.38;98121.88;8419684;28;20201;-59
2021/09/12 11:52:30;;;;;;;23.63;16.80;;;;;;;26.86;39.45;98119.91;8419832;28;20202;-58
2021/09/12 11:56:34;;;;;;;15.93;11.00;;;;;;;27.27;37.76;98119.88;8419341;28;20367;-58
2021/09/12 12:00:43;;;;;;;3.33;2.30;;;;;;;27.04;35.29;98117.06;8419457;28;20359;-59
2021/09/12 12:04:50;;;;;;;3.47;3.10;;;;;;;27.35;35.97;98103.06;8404676;28;20200;-59
2021/09/12 12:09:12;;;;;;;3.37;2.97;;;;;;;27.09;33.90;98111.22;8401306;28;20227;-59
2021/09/12 12:13:15;;;;;;;13.70;9.47;;;;;;;27.55;35.91;98103.50;8401395;28;20213;-59
2021/09/12 12:17:22;;;;;;;2.00;1.80;;;;;;;27.80;34.60;98104.19;8401297;28;20535;-59
2021/09/12 12:21:30;;;;;;;4.07;2.20;;;;;;;27.49;34.87;98099.69;8406168;28;20202;-59
2021/09/12 12:25:33;;;;;;;4.70;3.63;;;;;;;26.52;37.59;98102.31;8401368;28;20500;-59
2021/09/12 12:29:40;;;;;;;4.00;3.13;;;;;;;26.22;38.20;98095.84;8402321;28;20221;-59
2021/09/12 12:33:46;;;;;;;3.13;2.13;;;;;;;26.11;38.18;98093.50;8403288;28;20221;-59
2021/09/12 12:37:49;;;;;;;3.50;2.33;;;;;;;26.23;39.08;98100.13;8398763;28;20203;-59
2021/09/12 12:41:54;;;;;;;2.50;2.30;;;;;;;25.83;39.21;98093.72;8403209;28;20204;-59
2021/09/12 12:45:57;;;;;;;2.30;2.10;;;;;;;25.57;39.98;98085.88;8403397;28;20192;-59
2021/09/12 12:50:05;;;;;;;2.53;2.10;;;;;;;26.74;38.10;98083.25;8400215;28;20215;-59
2021/09/12 12:54:19;;;;;;;2.30;2.00;;;;;;;27.30;36.83;98082.31;8400695;28;20204;-59
2021/09/12 12:58:22;;;;;;;3.90;2.20;;;;;;;27.25;35.50;98074.03;8400074;28;20218;-59
2021/09/12 13:02:25;;;;;;;2.10;1.90;;;;;;;27.64;35.22;98069.69;8399786;28;20205;-60
2021/09/12 13:06:29;;;;;;;4.17;2.20;;;;;;;26.85;34.96;98075.75;8402101;28;20277;-60
2021/09/12 13:10:33;;;;;;;3.70;2.13;;;;;;;27.19;35.29;98064.06;8401961;28;20224;-60
2021/09/12 13:14:37;;;;;;;3.33;1.73;;;;;;;27.54;34.59;98058.44;8399519;28;20192;-60
2021/09/12 13:18:40;;;;;;;2.57;2.30;;;;;;;27.48;34.49;98060.78;8399380;28;20200;-60
2021/09/12 13:22:44;;;;;;;1.70;1.60;;;;;;;27.82;34.91;98051.63;8400587;28;20397;-60
2021/09/12 13:26:47;;;;;;;4.37;2.30;;;;;;;26.75;36.90;98045.91;8397575;28;20206;-60
2021/09/12 13:30:49;;;;;;;4.43;2.10;;;;;;;27.64;33.28;98045.75;8396720;28;20221;-60
2021/09/12 13:34:52;;;;;;;2.60;1.70;;;;;;;27.28;33.46;98041.78;8397590;28;20224;-60
2021/09/12 13:38:57;;;;;;;2.40;1.90;;;;;;;27.67;33.96;98048.06;8398889;28;20202;-60
2021/09/12 13:43:01;;;;;;;2.67;1.77;;;;;;;28.02;33.12;98045.88;8398776;28;20391;-60
2021/09/12 13:47:06;;;;;;;2.23;1.70;;;;;;;27.69;31.36;98044.22;8405200;28;20197;-60
2021/09/12 13:51:09;;;;;;;3.47;1.40;;;;;;;27.72;32.24;98042.22;8405920;28;20228;-60
2021/09/12 13:55:16;;;;;;;2.00;1.40;;;;;;;28.10;32.40;98040.47;8404933;28;20201;-60
2021/09/12 13:59:19;;;;;;;2.47;1.70;;;;;;;28.04;32.55;98034.03;8398498;28;20378;-61
2021/09/12 14:03:22;;;;;;;2.20;1.63;;;;;;;27.57;32.95;98032.34;8415602;28;20382;-60
2021/09/12 14:07:28;;;;;;;2.20;1.70;;;;;;;27.66;32.94;98033.09;8402776;28;20285;-60
2021/09/12 14:11:32;;;;;;;3.17;1.60;;;;;;;27.68;32.91;98026.63;8390419;28;20222;-60
2021/09/12 14:15:35;;;;;;;7.77;1.80;;;;;;;27.99;32.29;98033.75;8382393;28;20403;-60
2021/09/12 14:19:38;;;;;;;8.10;1.93;;;;;;;28.07;32.58;98032.88;8382114;28;20278;-60
2021/09/12 14:23:41;;;;;;;4.67;1.50;;;;;;;28.21;32.33;98034.75;8409022;28;20217;-60
2021/09/12 14:27:47;;;;;;;2.13;1.60;;;;;;;28.31;32.61;98023.03;8382727;28;20213;-61
2021/09/12 14:31:50;;;;;;;4.07;1.77;;;;;;;28.38;32.47;98015.97;8394058;28;20293;-61
2021/09/12 14:35:54;;;;;;;2.80;1.70;;;;;;;28.02;33.35;98014.75;8397673;28;20217;-60
2021/09/12 14:39:58;;;;;;;8.67;1.80;;;;;;;28.20;33.21;98003.00;8382062;28;20207;-61
2021/09/12 14:44:02;;;;;;;3.37;1.60;;;;;;;28.21;33.31;98005.47;8382011;28;20397;-61
2021/09/12 14:48:05;;;;;;;1.97;1.67;;;;;;;28.31;32.87;98002.56;8382070;28;20202;-60
2021/09/12 14:52:08;;;;;;;2.83;1.50;;;;;;;28.12;32.71;98008.38;8381868;28;20542;-60
2021/09/12 14:56:16;;;;;;;5.43;1.60;;;;;;;27.90;32.39;98002.88;8382216;28;20210;-60
2021/09/12 15:00:21;;;;;;;1.67;1.40;;;;;;;27.48;32.83;98002.28;8383282;28;20204;-60
2021/09/12 15:04:24;;;;;;;4.10;1.50;;;;;;;27.31;33.08;97995.41;8387903;28;20210;-60
2021/09/12 15:08:27;;;;;;;3.20;1.57;;;;;;;27.25;33.15;97996.09;8387589;28;20352;-63
2021/09/12 15:12:31;;;;;;;1.43;1.33;;;;;;;27.34;33.15;97991.56;8387521;28;20284;-60
2021/09/12 15:16:36;;;;;;;2.17;1.20;;;;;;;27.25;33.84;98002.25;8387492;28;20424;-60
2021/09/12 15:20:40;;;;;;;7.90;1.53;;;;;;;27.05;34.20;97998.31;8391412;28;20206;-60
2021/09/12 15:24:44;;;;;;;3.37;1.53;;;;;;;26.88;34.73;97993.06;8420423;28;20221;-61
2021/09/12 15:28:47;;;;;;;1.73;1.30;;;;;;;26.45;34.86;98002.25;8420250;28;20208;-60
2021/09/12 15:32:52;;;;;;;2.13;1.30;;;;;;;26.45;35.34;97995.13;8419941;28;20240;-60
2021/09/12 15:36:55;;;;;;;2.33;1.37;;;;;;;26.37;35.46;97995.13;8420039;28;20199;-60
2021/09/12 15:40:58;;;;;;;7.83;1.80;;;;;;;26.14;35.32;97982.53;8419603;28;20206;-60
2021/09/12 15:45:03;;;;;;;5.33;1.60;;;;;;;26.01;35.00;97976.06;8420057;28;20199;-60
2021/09/12 15:49:07;;;;;;;5.23;1.40;;;;;;;25.91;35.61;97974.44;8419370;28;20192;-76
2021/09/12 15:53:10;;;;;;;3.43;1.50;;;;;;;25.86;37.00;97979.34;8416933;28;20228;-78
2021/09/12 15:57:13;;;;;;;5.43;1.57;;;;;;;25.80;37.05;97972.06;8419511;28;20196;-79
2021/09/12 16:01:17;;;;;;;2.00;1.50;;;;;;;25.76;36.25;97973.41;8419275;28;20211;-76
2021/09/12 16:05:25;;;;;;;1.33;1.20;;;;;;;25.65;36.74;97977.19;8418913;28;20230;-79
2021/09/12 16:09:28;;;;;;;2.57;1.30;;;;;;;25.43;36.71;97975.16;8419140;28;20196;-76
2021/09/12 16:13:32;;;;;;;2.57;1.30;;;;;;;25.29;36.27;97981.91;8418472;28;20235;-75
2021/09/12 16:17:35;;;;;;;4.20;1.20;;;;;;;25.26;36.64;97975.09;8418245;28;20216;-75
2021/09/12 16:21:40;;;;;;;5.40;1.30;;;;;;;25.14;36.58;97971.88;8418490;28;20395;-76
2021/09/12 16:25:42;;;;;;;5.50;1.30;;;;;;;25.14;36.82;97965.75;8417905;28;20212;-77
2021/09/12 16:29:47;;;;;;;3.43;1.20;;;;;;;25.06;37.33;97971.84;8418363;28;20205;-76
2021/09/12 16:33:50;;;;;;;10.03;1.83;;;;;;;24.92;37.57;97970.66;8418268;28;20527;-77
2021/09/12 16:37:54;;;;;;;1.90;1.20;;;;;;;24.88;36.83;97969.28;8417591;28;20201;-78
2021/09/12 16:41:57;;;;;;;1.87;1.30;;;;;;;24.88;37.14;97969.28;8389928;28;20209;-78
2021/09/12 16:46:17;;;;;;;3.60;1.20;;;;;;;24.76;37.46;97971.38;8384518;28;20503;-77
2021/09/12 16:50:20;;;;;;;2.40;1.20;;;;;;;24.65;37.71;97963.72;8384499;28;20566;-77
2021/09/12 16:54:24;;;;;;;3.43;1.27;;;;;;;24.65;37.44;97968.19;8387038;28;20204;-73
2021/09/12 16:58:27;;;;;;;6.27;1.57;;;;;;;25.13;36.75;97966.72;8413752;28;20423;-68
2021/09/12 17:02:30;;;;;;;33.20;3.17;;;;;;;24.67;38.50;97967.03;8415567;28;20199;-68
2021/09/12 17:06:33;;;;;;;4.83;1.13;;;;;;;24.64;38.44;97961.25;8424165;28;20231;-70
2021/09/12 17:10:37;;;;;;;1.90;1.17;;;;;;;24.64;39.13;97974.47;8416963;28;20221;-70
2021/09/12 17:14:40;;;;;;;5.20;1.37;;;;;;;24.60;39.95;97973.97;8417846;28;20217;-68
2021/09/12 17:18:43;;;;;;;3.03;1.60;;;;;;;24.56;40.32;97975.25;8416731;28;20207;-67
2021/09/12 17:22:47;;;;;;;2.40;1.27;;;;;;;24.43;41.55;97975.66;8421040;28;20207;-68
2021/09/12 17:26:52;;;;;;;3.43;1.43;;;;;;;24.29;42.63;97974.38;8416839;28;20198;-67
2021/09/12 17:30:55;;;;;;;5.10;1.60;;;;;;;24.25;42.80;97975.66;8416459;28;20444;-67
2021/09/12 17:34:58;;;;;;;7.93;1.60;;;;;;;24.18;43.91;97979.94;8416527;28;20219;-69
2021/09/12 17:39:01;;;;;;;4.43;1.60;;;;;;;24.10;43.96;97979.84;8427150;28;20195;-71
2021/09/12 17:43:05;;;;;;;4.53;1.87;;;;;;;24.01;44.44;97984.28;8449924;28;20212;-68
2021/09/12 17:47:10;;;;;;;8.80;2.13;;;;;;;23.88;45.69;97994.41;8450028;28;20210;-70
2021/09/12 17:51:13;;;;;;;5.50;1.60;;;;;;;23.82;45.43;97993.19;8429444;28;20229;-69
2021/09/12 17:55:15;;;;;;;7.50;1.60;;;;;;;23.81;45.20;97994.16;8416118;28;20395;-68
2021/09/12 17:59:20;;;;;;;7.00;2.10;;;;;;;23.76;45.65;98004.31;8415940;28;20209;-68
2021/09/12 18:03:22;;;;;;;3.60;1.67;;;;;;;23.75;45.96;98007.97;8415883;28;20203;-69
2021/09/12 18:07:26;;;;;;;6.37;1.90;;;;;;;23.65;46.01;97999.28;8415593;28;20234;-69
2021/09/12 18:11:29;;;;;;;3.83;1.70;;;;;;;23.60;46.47;98000.53;8415948;28;20230;-70
2021/09/12 18:15:33;;;;;;;8.80;2.10;;;;;;;23.52;45.96;98004.94;8446178;28;20204;-68
2021/09/12 18:19:37;;;;;;;7.97;2.07;;;;;;;23.28;46.33;98008.94;8449227;28;20217;-68
2021/09/12 18:23:40;;;;;;;5.33;2.03;;;;;;;23.12;47.16;98014.03;8449156;28;20221;-68
2021/09/12 18:27:43;;;;;;;38.30;4.60;;;;;;;22.99;47.84;98015.16;8449078;28;20213;-68
2021/09/12 18:31:48;;;;;;;2.50;1.80;;;;;;;22.92;48.34;98023.81;8429877;28;20415;-67
2021/09/12 18:35:51;;;;;;;2.90;1.67;;;;;;;22.83;48.73;98015.78;8419480;28;20411;-68
2021/09/12 18:39:54;;;;;;;3.20;2.10;;;;;;;22.73;48.60;98015.00;8421879;28;20212;-67
2021/09/12 18:43:57;;;;;;;4.00;1.73;;;;;;;22.68;49.29;98017.22;8421641;28;20199;-68
2021/09/12 18:48:02;;;;;;;3.57;1.70;;;;;;;22.60;49.16;98033.78;8421693;28;20199;-68
2021/09/12 18:52:05;;;;;;;3.97;1.80;;;;;;;22.55;49.31;98033.38;8421392;28;20235;-67
2021/09/12 18:56:08;;;;;;;4.67;2.10;;;;;;;22.44;49.23;98034.34;8421328;28;20214;-67
2021/09/12 19:00:12;;;;;;;5.10;2.23;;;;;;;22.36;49.69;98034.22;8421217;28;20205;-67